INFORMACIÓN METAR y TAF
METAR FOR LWSK
ADDS - METARS form results

(1314 UTC 28 February 2021)
Data provider http://aviationweather.gov/metar/data/
 
METAR text: LWSK 281300Z 35011KT CAVOK 13/M05 Q1029 NOSIG
Conditions at: LWSK (SKOPJE/PETROVAC , MK) observed 1300 UTC 28 February 2021
Temperature: 13.0°C (55°F)
Dewpoint: -5.0°C (23°F) [RH = 28%]
Pressure (altimeter): 30.38 inches Hg (1029.0 mb)
Winds: from the N (350 degrees) at 13 MPH (11 knots; 5.7 m/s)
Visibility: 6 or more miles (10+ km)
Ceiling: ceiling and visibility are OK
Clouds: unknown
Weather: no significant weather observed at this time

METAR text: LWSK 281230Z 33010KT CAVOK 13/M05 Q1029 NOSIG
Conditions at: LWSK (SKOPJE/PETROVAC , MK) observed 1230 UTC 28 February 2021
Temperature: 13.0°C (55°F)
Dewpoint: -5.0°C (23°F) [RH = 28%]
Pressure (altimeter): 30.38 inches Hg (1029.0 mb)
Winds: from the NNW (330 degrees) at 12 MPH (10 knots; 5.1 m/s)
Visibility: 6 or more miles (10+ km)
Ceiling: ceiling and visibility are OK
Clouds: unknown
Weather: no significant weather observed at this time

Forecast for: LWSK (SKOPJE/PETROVAC , MK)
Text: TAF LWSK 281130Z 2812/0112 36010KT CAVOK
Forecast period: 1200 UTC 28 February 2021 to 1200 UTC 01 March 2021
Forecast type: FROM: standard forecast or significant change
Winds: from the N (360 degrees) at 12 MPH (10 knots; 5.1 m/s)
Visibility: 6 or more miles (10+ km)
Ceiling: unknown
Clouds: missing
Weather: NSW  (no significant weather)
Text: TEMPO 2812/2818 01012G22KT
Forecast period: 1200 to 1800 UTC 28 February 2021
Forecast type: TEMPORARY: The following changes expected for less than half the time period
Winds: from the N (10 degrees) at 14 MPH (12 knots; 6.2 m/s)
gusting to 25 MPH (22 knots; 11.3 m/s)
Visibility: missing
Ceiling: unknown
Clouds: missing
Weather: no significant weather forecast for this period

 MAPA DE AEROPUERTO

 INFORMACIÓN DE PISTA